Strona główna
METAR-TAF:

METAR-TAF

Lotnisko :

Port lotniczy Jerez

Jerez de la Frontera, Hiszpania

Szerokość geograficzna: 36-45N, Długość geograficzna: 006-04W, wysokość: 27 m

Aktualna obserwacja pogody

Raport powstał 41 minut temu, godzina 18:00 UTC
Wiatr 11 kt od zachód, zmienny między zachodnio-południowy zachód i północny zachód
Temperatura 27°C
Wilgotność 54%
Ciśnienie 1008 hPa
Widzialność 10 km lub więcej
Brak chmur poniżej 1500 m i brak chmur cumulonimbus

METAR: LEJR 251800Z 28011KT 240V320 CAVOK 27/17 Q1008

czas: 20:41 (18:41 UTC)

Prognoza

Raport powstał 4 godziny i 41 minut temu, godzina 14:00 UTC
Prognoza ważna od 25 godzina 15 UTC do 26 godzina 15 UTC
Wiatr 10 kt od zachód
Widzialność 10 km lub więcej
Brak chmur poniżej 1500 m i brak chmur cumulonimbus
Stopniowe zmiany
od 25 godzina 20 UTC do 25 godzina 22 UTC
Wiatr 6 kt od południe

TAF: LEJR 251400Z 2515/2615 27010KT CAVOK TX25/2614Z TN17/2606Z BECMG 2520/2522 18006KT

Obserwacja i prognoza pogody dla ponad 4000 lotnisk (raport METAR i TAF).

Dostępne stacje oznaczono żółtymi i czerwonymi punktami na mapie.

Najedź kursorem aby zobaczyć nazwę stacji.

Kliknij aby zobaczyć obserwacje i prognozy pogody.

Aby zmienić mapę: kliknij na zielony przycisk z czarnym krzyżykiem, aby powiększyć; na zielony przycisk z myślnikiem, aby pomniejszyć; na zielone strzałki, aby przejść do map sąsiednich.


METAR-TAF: